createdAt,value
2019-04-20T00:00:03.119Z,23.90
2019-04-20T00:02:30.138Z,23.90
2019-04-20T00:04:59.111Z,23.90
2019-04-20T00:07:30.989Z,23.90
2019-04-20T00:10:03.507Z,23.90
2019-04-20T00:12:36.864Z,23.90
2019-04-20T00:14:54.785Z,23.90
2019-04-20T00:17:22.382Z,23.90
2019-04-20T00:19:53.799Z,23.90
2019-04-20T00:22:24.612Z,23.90
2019-04-20T00:24:58.060Z,23.90
2019-04-20T00:27:42.877Z,23.90
2019-04-20T00:30:08.927Z,23.90
2019-04-20T00:32:37.707Z,23.90
2019-04-20T00:34:52.761Z,23.90
2019-04-20T00:37:21.583Z,23.90
2019-04-20T00:39:49.171Z,23.80
2019-04-20T00:42:18.031Z,23.90
2019-04-20T00:44:55.144Z,23.90
2019-04-20T00:47:30.431Z,23.90
2019-04-20T00:49:57.816Z,23.90
2019-04-20T00:52:47.100Z,23.90
2019-04-20T00:54:43.352Z,23.90
2019-04-20T00:57:20.302Z,23.90
2019-04-20T00:59:59.215Z,23.80
2019-04-20T01:02:20.883Z,23.80
2019-04-20T01:04:57.846Z,23.80
2019-04-20T01:07:32.046Z,23.80
2019-04-20T01:10:07.016Z,23.80
2019-04-20T01:12:37.440Z,23.80
2019-04-20T01:15:09.523Z,23.80
2019-04-20T01:17:37.901Z,23.80
2019-04-20T01:20:05.250Z,23.80
2019-04-20T01:22:40.270Z,23.80
2019-04-20T01:25:09.932Z,23.80
2019-04-20T01:27:42.962Z,23.70
2019-04-20T01:30:10.523Z,23.80
2019-04-20T01:32:49.190Z,23.80
2019-04-20T01:35:10.083Z,23.70
2019-04-20T01:37:41.041Z,23.80
2019-04-20T01:40:01.077Z,23.80
2019-04-20T01:42:27.590Z,23.70
2019-04-20T01:44:56.990Z,23.70
2019-04-20T01:47:34.489Z,23.70
2019-04-20T01:50:00.457Z,23.80
2019-04-20T01:52:30.080Z,23.70
2019-04-20T01:55:24.489Z,23.70
2019-04-20T01:58:02.025Z,23.70
2019-04-20T02:00:29.978Z,23.70
2019-04-20T02:02:59.341Z,23.60
2019-04-20T02:05:29.434Z,23.70
2019-04-20T02:07:55.445Z,23.80
2019-04-20T02:10:34.231Z,23.80
2019-04-20T02:12:57.578Z,23.70
2019-04-20T02:15:30.981Z,23.80
2019-04-20T02:18:03.546Z,23.70
2019-04-20T02:20:37.839Z,23.70
2019-04-20T02:23:06.270Z,23.70
2019-04-20T02:25:18.635Z,23.70
2019-04-20T02:27:51.760Z,23.70
2019-04-20T02:30:47.518Z,23.80
2019-04-20T02:33:27.406Z,23.70
2019-04-20T02:36:04.118Z,23.80
2019-04-20T02:38:58.457Z,23.70
2019-04-20T02:43:40.180Z,23.80
2019-04-20T02:48:33.736Z,23.70
2019-04-20T02:50:59.226Z,23.70
2019-04-20T02:53:32.946Z,23.80
2019-04-20T02:56:04.907Z,23.70
2019-04-20T02:58:29.054Z,23.70
2019-04-20T03:00:44.746Z,23.70
2019-04-20T03:03:09.029Z,23.70
2019-04-20T03:05:33.216Z,23.70
2019-04-20T03:08:08.939Z,23.70
2019-04-20T03:10:50.612Z,23.70
2019-04-20T03:13:14.448Z,23.70
2019-04-20T03:15:44.548Z,23.70
2019-04-20T03:18:12.030Z,23.70
2019-04-20T03:20:43.387Z,23.70
2019-04-20T03:23:26.823Z,23.70
2019-04-20T03:25:58.523Z,23.70
2019-04-20T03:28:23.589Z,23.70
2019-04-20T03:33:51.500Z,23.70
2019-04-20T03:36:10.358Z,23.70
2019-04-20T03:38:20.116Z,23.70
2019-04-20T03:40:45.202Z,23.70
2019-04-20T03:43:03.837Z,23.70
2019-04-20T03:45:41.263Z,23.70
2019-04-20T03:48:14.348Z,23.60
2019-04-20T03:50:50.809Z,23.70
2019-04-20T03:53:22.982Z,23.70
2019-04-20T03:55:50.180Z,23.60
2019-04-20T03:58:37.620Z,23.60
2019-04-20T04:01:13.316Z,23.60
2019-04-20T04:04:00.270Z,23.60
2019-04-20T04:06:21.497Z,23.60
2019-04-20T04:08:48.616Z,23.60
2019-04-20T04:11:21.065Z,23.60
2019-04-20T04:13:37.648Z,23.60
2019-04-20T04:16:10.013Z,23.60
2019-04-20T04:18:39.394Z,23.60
2019-04-20T04:21:08.891Z,23.60
2019-04-20T04:23:49.077Z,23.60
2019-04-20T04:26:24.658Z,23.60
2019-04-20T04:28:48.938Z,23.60
2019-04-20T04:31:20.457Z,23.60
2019-04-20T04:34:02.564Z,23.60
2019-04-20T04:36:14.021Z,23.60
2019-04-20T04:38:55.194Z,23.60
2019-04-20T04:41:35.498Z,23.60
2019-04-20T04:43:45.006Z,23.60
2019-04-20T04:45:57.489Z,23.60
2019-04-20T04:48:33.032Z,23.60
2019-04-20T04:51:02.725Z,23.50
2019-04-20T04:53:38.752Z,23.50
2019-04-20T04:56:00.453Z,23.60
2019-04-20T04:58:23.643Z,23.50
2019-04-20T05:00:51.579Z,23.50
2019-04-20T05:03:38.657Z,23.50
2019-04-20T05:06:06.460Z,23.50
2019-04-20T05:08:26.164Z,23.50
2019-04-20T05:10:50.111Z,23.60
2019-04-20T05:13:17.837Z,23.50
2019-04-20T05:15:57.989Z,23.50
2019-04-20T05:18:43.513Z,23.50
2019-04-20T05:21:04.320Z,23.50
2019-04-20T05:23:28.223Z,23.50
2019-04-20T05:26:13.778Z,23.50
2019-04-20T05:28:42.112Z,23.50
2019-04-20T05:31:02.954Z,23.60
2019-04-20T05:33:48.548Z,23.60
2019-04-20T05:36:18.589Z,23.60
2019-04-20T05:38:52.056Z,23.60
2019-04-20T05:41:12.805Z,23.50
2019-04-20T05:43:45.715Z,23.60
2019-04-20T05:46:22.053Z,23.60
2019-04-20T05:48:50.950Z,23.60
2019-04-20T05:51:20.979Z,23.60
2019-04-20T05:53:44.377Z,23.60
2019-04-20T05:56:08.875Z,23.50
2019-04-20T05:58:47.572Z,23.60
2019-04-20T06:01:13.536Z,23.60
2019-04-20T06:03:38.243Z,23.60
2019-04-20T06:06:08.089Z,23.60
2019-04-20T06:08:46.467Z,23.60
2019-04-20T06:11:09.335Z,23.60
2019-04-20T06:13:37.904Z,23.60
2019-04-20T06:16:33.276Z,23.60
2019-04-20T06:19:10.281Z,23.60
2019-04-20T06:21:37.757Z,23.60
2019-04-20T06:24:26.509Z,23.60
2019-04-20T06:29:20.652Z,23.70
2019-04-20T06:31:53.160Z,23.70
2019-04-20T06:34:30.654Z,23.70
2019-04-20T06:39:29.188Z,23.80
2019-04-20T06:44:26.656Z,23.70
2019-04-20T06:46:59.105Z,23.70
2019-04-20T06:49:25.144Z,23.70
2019-04-20T06:52:04.583Z,23.70
2019-04-20T06:54:28.684Z,23.70
2019-04-20T06:56:59.935Z,23.70
2019-04-20T06:59:39.272Z,23.70
2019-04-20T07:02:09.971Z,23.70
2019-04-20T07:07:03.517Z,23.80
2019-04-20T07:09:42.290Z,23.70
2019-04-20T07:11:56.610Z,23.80
2019-04-20T07:14:11.798Z,23.80
2019-04-20T07:17:10.666Z,23.70
2019-04-20T07:19:45.530Z,23.80
2019-04-20T07:22:29.797Z,23.80
2019-04-20T07:24:56.802Z,23.80
2019-04-20T07:27:23.027Z,23.80
2019-04-20T07:30:00.574Z,23.80
2019-04-20T07:32:15.301Z,23.80
2019-04-20T07:34:51.537Z,23.80
2019-04-20T07:39:58.913Z,23.80
2019-04-20T07:42:35.046Z,23.80
2019-04-20T07:45:01.290Z,23.80
2019-04-20T07:47:38.640Z,23.80
2019-04-20T07:49:49.674Z,23.80
2019-04-20T07:52:06.107Z,23.80
2019-04-20T07:55:14.967Z,23.80
2019-04-20T07:57:27.184Z,23.80
2019-04-20T07:59:55.170Z,23.80
2019-04-20T08:02:51.696Z,23.80
2019-04-20T08:05:10.665Z,23.80
2019-04-20T08:07:42.656Z,23.80
2019-04-20T08:10:02.924Z,23.80
2019-04-20T08:15:38.055Z,23.80
2019-04-20T08:17:53.913Z,23.80
2019-04-20T08:20:22.023Z,23.80
2019-04-20T08:22:53.157Z,23.80
2019-04-20T08:25:14.221Z,23.80
2019-04-20T08:27:46.733Z,23.80
2019-04-20T08:30:38.516Z,23.80
2019-04-20T08:33:10.059Z,23.80
2019-04-20T08:35:47.699Z,23.80
2019-04-20T08:38:47.273Z,23.80
2019-04-20T08:40:44.123Z,23.80
2019-04-20T08:43:20.164Z,23.80
2019-04-20T08:45:41.982Z,23.80
2019-04-20T08:48:18.860Z,23.80
2019-04-20T08:50:43.988Z,23.80
2019-04-20T08:53:20.520Z,23.80
2019-04-20T08:55:36.155Z,23.80
2019-04-20T08:57:49.256Z,23.80
2019-04-20T09:00:28.794Z,23.80
2019-04-20T09:02:51.966Z,23.80
2019-04-20T09:05:32.597Z,23.80
2019-04-20T09:07:57.522Z,23.80
2019-04-20T09:10:34.752Z,23.80
2019-04-20T09:13:01.485Z,23.80
2019-04-20T09:15:14.660Z,23.70
2019-04-20T09:17:50.638Z,23.60
2019-04-20T09:20:22.767Z,23.60
2019-04-20T09:22:57.937Z,23.70
2019-04-20T09:25:48.441Z,23.70
2019-04-20T09:27:56.219Z,23.70
2019-04-20T09:30:27.862Z,23.70
2019-04-20T09:33:09.206Z,23.70
2019-04-20T09:35:37.138Z,23.80
2019-04-20T09:38:05.149Z,23.80
2019-04-20T09:40:41.730Z,23.80
2019-04-20T09:42:52.603Z,23.80
2019-04-20T09:45:33.026Z,23.80
2019-04-20T09:47:56.463Z,23.80
2019-04-20T09:50:40.887Z,23.80
2019-04-20T09:53:10.031Z,23.80
2019-04-20T09:55:35.834Z,23.80
2019-04-20T09:58:05.189Z,23.80
2019-04-20T10:00:37.337Z,23.80
2019-04-20T10:02:50.529Z,23.80
2019-04-20T10:05:18.233Z,23.80
2019-04-20T10:07:49.274Z,23.80
2019-04-20T10:10:24.599Z,23.80
2019-04-20T10:12:44.435Z,23.80
2019-04-20T10:15:17.717Z,23.80
2019-04-20T10:17:41.471Z,23.80
2019-04-20T10:20:15.019Z,23.80
2019-04-20T10:22:38.499Z,23.80
2019-04-20T10:25:06.655Z,23.80
2019-04-20T10:27:34.734Z,23.80
2019-04-20T10:30:05.575Z,23.80
2019-04-20T10:32:38.814Z,23.80
2019-04-20T10:35:02.501Z,23.80
2019-04-20T10:37:31.677Z,23.80
2019-04-20T10:40:00.529Z,23.90
2019-04-20T10:42:28.249Z,23.90
2019-04-20T10:44:58.572Z,23.90
2019-04-20T10:47:25.353Z,23.80
2019-04-20T10:49:53.372Z,23.90
2019-04-20T10:52:21.004Z,23.90
2019-04-20T10:54:48.570Z,23.90
2019-04-20T10:57:17.353Z,23.90
2019-04-20T10:59:45.696Z,23.90
2019-04-20T11:02:14.018Z,23.90
2019-04-20T11:04:41.762Z,23.90
2019-04-20T11:07:10.412Z,23.90
2019-04-20T11:09:38.737Z,23.90
2019-04-20T11:12:08.301Z,24.00
2019-04-20T11:14:38.729Z,23.90
2019-04-20T11:17:06.372Z,23.90
2019-04-20T11:19:34.186Z,23.90
2019-04-20T11:22:02.215Z,23.90
2019-04-20T11:24:30.164Z,23.90
2019-04-20T11:26:58.345Z,24.00
2019-04-20T11:29:26.389Z,23.90
2019-04-20T11:31:56.027Z,23.90
2019-04-20T11:34:28.656Z,24.00
2019-04-20T11:36:53.011Z,24.00
2019-04-20T11:39:20.958Z,24.00
2019-04-20T11:41:49.785Z,24.00
2019-04-20T11:44:17.900Z,24.00
2019-04-20T11:46:45.536Z,24.00
2019-04-20T11:49:13.234Z,24.00
2019-04-20T11:51:41.450Z,24.00
2019-04-20T11:54:10.310Z,24.00
2019-04-20T11:56:40.767Z,24.00
2019-04-20T11:59:09.439Z,24.00
2019-04-20T12:01:49.313Z,24.00
2019-04-20T12:04:26.106Z,24.00
2019-04-20T12:06:43.350Z,24.00
2019-04-20T12:09:11.089Z,23.90
2019-04-20T12:11:53.330Z,23.90
2019-04-20T12:14:08.183Z,23.90
2019-04-20T12:16:35.820Z,24.00
2019-04-20T12:19:04.331Z,23.90
2019-04-20T12:21:32.728Z,24.30
2019-04-20T12:24:00.495Z,23.90
2019-04-20T12:26:29.018Z,23.90
2019-04-20T12:28:57.885Z,24.00
2019-04-20T12:31:27.579Z,23.90
2019-04-20T12:33:55.045Z,24.00
2019-04-20T12:36:23.868Z,23.90
2019-04-20T12:38:52.825Z,23.90
2019-04-20T12:41:31.111Z,23.90
2019-04-20T12:43:50.156Z,23.90
2019-04-20T12:46:19.805Z,23.90
2019-04-20T12:48:47.415Z,23.90
2019-04-20T12:51:15.547Z,23.90
2019-04-20T12:53:44.526Z,23.90
2019-04-20T12:56:12.776Z,23.90
2019-04-20T12:58:43.336Z,23.80
2019-04-20T13:01:10.089Z,23.80
2019-04-20T13:03:37.847Z,23.80
2019-04-20T13:06:05.897Z,23.80
2019-04-20T13:08:36.932Z,23.80
2019-04-20T13:11:04.704Z,23.70
2019-04-20T13:13:40.803Z,23.80
2019-04-20T13:16:16.451Z,23.80
2019-04-20T13:18:45.781Z,23.70
2019-04-20T13:21:13.428Z,23.70
2019-04-20T13:23:41.049Z,23.70
2019-04-20T13:26:10.164Z,23.70
2019-04-20T13:28:39.068Z,23.70
2019-04-20T13:31:08.008Z,23.60
2019-04-20T13:33:36.904Z,23.60
2019-04-20T13:36:05.815Z,23.60
2019-04-20T13:38:34.261Z,23.60
2019-04-20T13:41:04.058Z,23.70
2019-04-20T13:43:32.065Z,23.70
2019-04-20T13:46:00.747Z,23.70
2019-04-20T13:48:28.876Z,23.70
2019-04-20T13:50:56.584Z,23.80
2019-04-20T13:53:25.335Z,23.80
2019-04-20T13:55:54.064Z,23.80
2019-04-20T13:58:41.851Z,23.80
2019-04-20T14:01:17.146Z,23.90
2019-04-20T14:03:44.979Z,24.00
2019-04-20T14:06:12.711Z,24.00
2019-04-20T14:08:41.229Z,24.00
2019-04-20T14:11:09.453Z,24.10
2019-04-20T14:13:43.698Z,24.10
2019-04-20T14:16:07.254Z,24.10
2019-04-20T14:18:35.406Z,24.10
2019-04-20T14:21:03.118Z,24.10
2019-04-20T14:23:30.957Z,24.20
2019-04-20T14:25:58.783Z,24.30
2019-04-20T14:28:27.042Z,24.30
2019-04-20T14:30:56.028Z,24.40
2019-04-20T14:33:24.219Z,24.30
2019-04-20T14:35:52.780Z,24.30
2019-04-20T14:38:20.445Z,24.30
2019-04-20T14:40:48.374Z,24.20
2019-04-20T14:43:17.227Z,24.30
2019-04-20T14:45:45.102Z,24.20
2019-04-20T14:48:12.875Z,24.30
2019-04-20T14:50:41.382Z,24.20
2019-04-20T14:53:09.518Z,24.20
2019-04-20T14:55:37.648Z,24.20
2019-04-20T14:58:07.892Z,24.20
2019-04-20T15:00:41.689Z,24.20
2019-04-20T15:03:28.302Z,24.20
2019-04-20T15:05:57.709Z,24.20
2019-04-20T15:08:25.378Z,24.30
2019-04-20T15:10:52.950Z,24.20
2019-04-20T15:13:20.575Z,24.20
2019-04-20T15:15:48.501Z,24.20
2019-04-20T15:18:17.831Z,24.20
2019-04-20T15:20:47.783Z,24.20
2019-04-20T15:23:17.456Z,24.30
2019-04-20T15:25:46.462Z,24.30
2019-04-20T15:28:14.561Z,24.30
2019-04-20T15:30:42.554Z,24.30
2019-04-20T15:33:10.234Z,24.30
2019-04-20T15:35:41.928Z,24.30
2019-04-20T15:38:11.114Z,24.30
2019-04-20T15:40:39.420Z,24.30
2019-04-20T15:43:13.579Z,24.30
2019-04-20T15:45:37.090Z,24.40
2019-04-20T15:48:06.007Z,24.40
2019-04-20T15:50:33.955Z,24.30
2019-04-20T15:53:02.634Z,24.40
2019-04-20T15:55:37.432Z,24.40
2019-04-20T15:58:03.270Z,24.40
2019-04-20T16:00:29.575Z,24.40
2019-04-20T16:02:59.105Z,24.40
2019-04-20T16:05:40.878Z,24.50
2019-04-20T16:08:21.988Z,24.60
2019-04-20T16:10:50.892Z,24.90
2019-04-20T16:13:26.395Z,25.00
2019-04-20T16:15:47.926Z,25.10
2019-04-20T16:18:16.738Z,25.20
2019-04-20T16:20:55.722Z,25.30
2019-04-20T16:23:14.525Z,25.50
2019-04-20T16:25:59.617Z,25.60
2019-04-20T16:28:27.937Z,25.60
2019-04-20T16:30:55.892Z,25.60
2019-04-20T16:33:24.191Z,25.50
2019-04-20T16:35:52.366Z,25.40
2019-04-20T16:38:20.485Z,25.30
2019-04-20T16:40:48.433Z,25.20
2019-04-20T16:43:24.508Z,25.20
2019-04-20T16:45:45.485Z,25.10
2019-04-20T16:48:13.149Z,24.90
2019-04-20T16:50:40.825Z,24.80
2019-04-20T16:53:08.878Z,24.70
2019-04-20T16:55:36.979Z,24.70
2019-04-20T16:58:05.889Z,24.60
2019-04-20T17:00:33.763Z,24.60
2019-04-20T17:03:02.602Z,24.60
2019-04-20T17:05:31.517Z,24.50
2019-04-20T17:08:00.774Z,24.50
2019-04-20T17:10:28.908Z,24.50
2019-04-20T17:12:57.767Z,24.50
2019-04-20T17:15:25.598Z,24.40
2019-04-20T17:17:55.287Z,24.40
2019-04-20T17:20:25.066Z,24.40
2019-04-20T17:22:52.016Z,24.40
2019-04-20T17:25:19.792Z,24.40
2019-04-20T17:27:49.532Z,24.40
2019-04-20T17:30:31.586Z,24.40
2019-04-20T17:33:10.367Z,24.40
2019-04-20T17:35:51.356Z,24.40
2019-04-20T17:38:08.845Z,24.40
2019-04-20T17:40:56.439Z,24.20
2019-04-20T17:43:16.020Z,24.10
2019-04-20T17:45:44.598Z,24.00
2019-04-20T17:48:18.849Z,24.00
2019-04-20T17:50:54.628Z,24.00
2019-04-20T17:53:18.934Z,23.90
2019-04-20T17:55:41.693Z,24.00
2019-04-20T17:58:12.115Z,23.90
2019-04-20T18:00:58.548Z,24.00
2019-04-20T18:04:03.549Z,23.90
2019-04-20T18:06:37.376Z,23.90
2019-04-20T18:09:02.260Z,24.00
2019-04-20T18:11:21.310Z,24.00
2019-04-20T18:13:47.637Z,24.10
2019-04-20T18:16:45.073Z,24.00
2019-04-20T18:19:07.494Z,24.10
2019-04-20T18:21:32.951Z,24.00
2019-04-20T18:24:05.246Z,24.00
2019-04-20T18:26:47.944Z,23.90
2019-04-20T18:29:24.024Z,23.90
2019-04-20T18:31:33.543Z,23.90
2019-04-20T18:34:10.092Z,23.90
2019-04-20T18:36:38.273Z,23.90
2019-04-20T18:39:08.220Z,23.90
2019-04-20T18:41:42.020Z,23.90
2019-04-20T18:44:04.414Z,23.90
2019-04-20T18:46:58.720Z,23.90
2019-04-20T18:49:16.298Z,23.90
2019-04-20T18:51:30.875Z,23.90
2019-04-20T18:54:05.636Z,23.90
2019-04-20T18:56:33.037Z,23.90
2019-04-20T18:58:57.147Z,23.90
2019-04-20T19:01:31.003Z,23.90
2019-04-20T19:03:54.095Z,23.90
2019-04-20T19:06:21.701Z,23.90
2019-04-20T19:08:51.857Z,23.90
2019-04-20T19:11:21.336Z,23.80
2019-04-20T19:14:16.141Z,23.90
2019-04-20T19:16:51.793Z,23.90
2019-04-20T19:19:23.286Z,23.90
2019-04-20T19:21:40.269Z,23.90
2019-04-20T19:24:12.687Z,23.90
2019-04-20T19:26:38.401Z,23.90
2019-04-20T19:29:15.707Z,23.90
2019-04-20T19:31:52.721Z,23.90
2019-04-20T19:34:28.967Z,23.90
2019-04-20T19:36:41.457Z,23.90
2019-04-20T19:39:21.373Z,23.90
2019-04-20T19:41:44.322Z,23.90
2019-04-20T19:44:16.076Z,23.90
2019-04-20T19:47:01.369Z,23.70
2019-04-20T19:49:19.371Z,23.70
2019-04-20T19:51:55.427Z,23.70
2019-04-20T19:54:24.303Z,23.80
2019-04-20T19:56:47.389Z,23.80
2019-04-20T19:59:12.071Z,23.80
2019-04-20T20:01:29.618Z,23.80
2019-04-20T20:04:01.635Z,23.80
2019-04-20T20:06:33.224Z,23.80
2019-04-20T20:09:00.565Z,23.80
2019-04-20T20:11:30.381Z,23.80
2019-04-20T20:13:55.790Z,23.80
2019-04-20T20:16:31.185Z,23.70
2019-04-20T20:19:02.697Z,23.60
2019-04-20T20:21:35.260Z,23.40
2019-04-20T20:23:52.232Z,23.30
2019-04-20T20:26:29.146Z,23.30
2019-04-20T20:29:03.581Z,23.30
2019-04-20T20:31:28.275Z,23.30
2019-04-20T20:33:58.138Z,23.30
2019-04-20T20:36:21.131Z,23.20
2019-04-20T20:38:52.017Z,23.20
2019-04-20T20:41:25.429Z,23.20
2019-04-20T20:43:56.470Z,23.10
2019-04-20T20:46:25.236Z,23.10
2019-04-20T20:49:04.949Z,23.00
2019-04-20T20:51:37.868Z,23.00
2019-04-20T20:53:54.140Z,22.90
2019-04-20T20:56:22.118Z,22.80
2019-04-20T20:58:53.992Z,22.80
2019-04-20T21:01:19.609Z,22.80
2019-04-20T21:03:43.985Z,22.80
2019-04-20T21:06:11.655Z,22.80
2019-04-20T21:08:45.353Z,22.70
2019-04-20T21:11:13.205Z,22.80
2019-04-20T21:13:42.444Z,22.80
2019-04-20T21:16:16.368Z,22.80
2019-04-20T21:18:54.650Z,22.80
2019-04-20T21:21:23.094Z,22.80
2019-04-20T21:23:45.524Z,22.70
2019-04-20T21:26:11.483Z,22.70
2019-04-20T21:28:38.095Z,22.70
2019-04-20T21:31:14.106Z,22.70
2019-04-20T21:33:40.371Z,22.70
2019-04-20T21:36:09.088Z,22.60
2019-04-20T21:38:40.803Z,22.60
2019-04-20T21:41:12.547Z,22.60
2019-04-20T21:43:39.314Z,22.60
2019-04-20T21:46:08.228Z,22.60
2019-04-20T21:48:51.808Z,22.60
2019-04-20T21:51:23.307Z,22.50
2019-04-20T21:53:35.275Z,22.40
2019-04-20T21:56:03.879Z,22.40
2019-04-20T21:58:37.910Z,22.40
2019-04-20T22:01:12.526Z,22.50
2019-04-20T22:03:30.546Z,22.50
2019-04-20T22:06:00.201Z,22.60
2019-04-20T22:08:28.401Z,22.50
2019-04-20T22:10:56.073Z,22.50
2019-04-20T22:13:29.300Z,22.50
2019-04-20T22:16:01.162Z,22.40
2019-04-20T22:18:23.915Z,22.30
2019-04-20T22:21:04.949Z,22.30
2019-04-20T22:23:36.405Z,22.30
2019-04-20T22:26:07.230Z,22.40
2019-04-20T22:28:20.350Z,22.30
2019-04-20T22:30:48.459Z,22.30
2019-04-20T22:33:26.061Z,22.30
2019-04-20T22:35:51.534Z,22.40
2019-04-20T22:38:37.570Z,22.40
2019-04-20T22:41:11.959Z,22.50
2019-04-20T22:43:36.909Z,22.60
2019-04-20T22:46:03.301Z,22.60
2019-04-20T22:48:33.232Z,22.70
2019-04-20T22:51:19.563Z,22.70
2019-04-20T22:53:45.401Z,22.70
2019-04-20T22:56:18.702Z,22.70
2019-04-20T22:58:44.783Z,22.70
2019-04-20T23:01:03.915Z,22.70
2019-04-20T23:03:28.178Z,22.70
2019-04-20T23:05:56.520Z,22.70
2019-04-20T23:08:24.731Z,22.70
2019-04-20T23:10:53.543Z,22.50
2019-04-20T23:13:27.688Z,22.40
2019-04-20T23:15:56.438Z,22.30
2019-04-20T23:18:20.208Z,22.20
2019-04-20T23:20:47.971Z,22.20
2019-04-20T23:23:18.125Z,22.20
2019-04-20T23:25:45.182Z,22.10
2019-04-20T23:28:14.777Z,22.10
2019-04-20T23:30:43.913Z,22.10
2019-04-20T23:33:11.779Z,22.20
2019-04-20T23:35:43.773Z,22.30
2019-04-20T23:38:14.414Z,22.40
2019-04-20T23:40:39.570Z,22.40
2019-04-20T23:43:25.439Z,22.30
2019-04-20T23:46:08.308Z,22.20
2019-04-20T23:48:39.272Z,22.30
2019-04-20T23:51:29.934Z,22.20
2019-04-20T23:53:48.098Z,22.10
2019-04-20T23:56:03.739Z,22.30
2019-04-20T23:58:39.921Z,22.20
